hwlogo.jpg (8581 bytes)
Home Your Weather Products Services Weather On Your Site Contact
HW Version Logo
Weather Info
Your Weather (Options)
Canadian Weather
International Weather
Enter your " Place, State", US Zip Code or ICAO:  
Forecast Information Radar Information
Kuujjuaq, Québec, Canada  Lat: 58.10N, Lon: 68.42W
ICAO Used: CYTQ
Current Conditions
Updated:
Sun & Moon Information:
Temp: N/A
Humidity: N/A
Wind Speed: N/A
Barometer: N/A
Dewpoint: N/A
Heat Index: N/A
Wind Chill: N/A
Civil Twilight: 6:42 AM EDT Moon Phase:
Waxing Crescent Moon
Waxing Crescent Moon
Sunrise: 7:22 AM EDT
Sunset: 5:11 PM EDT
Civil Twilight: 5:51 PM EDT
Forecast for Kuujjuaq, QC, Canada:
(Forecast based on TAF for )
0339 PM EDT MON NOV 06 2006
  
AFTERNOONEVENING
OVERCASTOVERCAST
OvercastOvercast
TAF based forecast:
Dated: 0339 PM EDT MON NOV 06 2006
Afternoon...Overcast with winds from the south west at 14 mphand gusts up to 25 mph.
Evening...Overcast with winds from the south west at 14 mphand gusts up to 25 mph.
Original Encoded TAF:
Dated: 0339 PM EDT MON NOV 06 2006
2006/11/06 19:39
CYTQ 061939Z 062022 21012G22KT P6SM FEW030 OVC200=


  Powered By HAMweather.
Copyright © 2001 - 2003 HAMweather, LLC, all rights reserved.
US Forecasts are Public Domain and derived from the
National Weather Service - (IWIN) and the National Oceanic Atmospheric Administration (NOAA)
Canadian forecasts are obtained from and are copyright of Environment Canada.